sensor_id;sensor_type;location;lat;lon;timestamp;P1;durP1;ratioP1;P2;durP2;ratioP2
84444;SDS011;74683;48.402;10.596;2024-01-27T00:02:08;6.15;;;3.47;;
84444;SDS011;74683;48.402;10.596;2024-01-27T00:04:35;7.90;;;3.67;;
84444;SDS011;74683;48.402;10.596;2024-01-27T00:07:03;8.32;;;3.40;;
84444;SDS011;74683;48.402;10.596;2024-01-27T00:09:30;7.07;;;3.10;;
84444;SDS011;74683;48.402;10.596;2024-01-27T00:11:57;7.43;;;2.85;;
84444;SDS011;74683;48.402;10.596;2024-01-27T00:14:24;6.75;;;2.60;;
84444;SDS011;74683;48.402;10.596;2024-01-27T00:16:51;8.73;;;2.92;;
84444;SDS011;74683;48.402;10.596;2024-01-27T00:19:17;5.25;;;2.33;;
84444;SDS011;74683;48.402;10.596;2024-01-27T00:21:44;7.68;;;2.90;;
84444;SDS011;74683;48.402;10.596;2024-01-27T00:24:12;8.32;;;3.58;;
84444;SDS011;74683;48.402;10.596;2024-01-27T00:26:40;9.02;;;3.78;;
84444;SDS011;74683;48.402;10.596;2024-01-27T00:29:07;11.63;;;4.45;;
84444;SDS011;74683;48.402;10.596;2024-01-27T00:31:33;8.57;;;4.25;;
84444;SDS011;74683;48.402;10.596;2024-01-27T00:34:00;6.65;;;3.08;;
84444;SDS011;74683;48.402;10.596;2024-01-27T00:36:27;8.15;;;4.10;;
84444;SDS011;74683;48.402;10.596;2024-01-27T00:38:54;13.40;;;3.90;;
84444;SDS011;74683;48.402;10.596;2024-01-27T00:41:20;6.95;;;3.45;;
84444;SDS011;74683;48.402;10.596;2024-01-27T00:43:47;6.93;;;2.50;;
84444;SDS011;74683;48.402;10.596;2024-01-27T00:46:14;6.35;;;2.67;;
84444;SDS011;74683;48.402;10.596;2024-01-27T00:48:41;5.25;;;2.53;;
84444;SDS011;74683;48.402;10.596;2024-01-27T00:51:08;6.95;;;2.92;;
84444;SDS011;74683;48.402;10.596;2024-01-27T00:53:34;5.45;;;2.35;;
84444;SDS011;74683;48.402;10.596;2024-01-27T00:56:01;5.80;;;2.38;;
84444;SDS011;74683;48.402;10.596;2024-01-27T00:58:28;5.65;;;2.13;;
84444;SDS011;74683;48.402;10.596;2024-01-27T01:00:55;4.90;;;2.28;;
84444;SDS011;74683;48.402;10.596;2024-01-27T01:03:21;6.68;;;2.75;;
84444;SDS011;74683;48.402;10.596;2024-01-27T01:05:48;9.32;;;2.40;;
84444;SDS011;74683;48.402;10.596;2024-01-27T01:08:15;5.47;;;2.20;;
84444;SDS011;74683;48.402;10.596;2024-01-27T01:10:43;10.52;;;2.65;;
84444;SDS011;74683;48.402;10.596;2024-01-27T01:13:10;9.00;;;2.80;;
84444;SDS011;74683;48.402;10.596;2024-01-27T01:15:37;3.45;;;2.00;;
84444;SDS011;74683;48.402;10.596;2024-01-27T01:18:03;4.43;;;2.28;;
84444;SDS011;74683;48.402;10.596;2024-01-27T01:20:31;6.07;;;2.53;;
84444;SDS011;74683;48.402;10.596;2024-01-27T01:22:59;3.70;;;2.25;;
84444;SDS011;74683;48.402;10.596;2024-01-27T01:25:25;4.18;;;2.22;;
84444;SDS011;74683;48.402;10.596;2024-01-27T01:27:52;6.88;;;2.40;;
84444;SDS011;74683;48.402;10.596;2024-01-27T01:30:18;4.32;;;2.35;;
84444;SDS011;74683;48.402;10.596;2024-01-27T01:32:45;2.00;;;1.20;;
84444;SDS011;74683;48.402;10.596;2024-01-27T01:35:12;4.85;;;1.73;;
84444;SDS011;74683;48.402;10.596;2024-01-27T01:37:39;6.07;;;1.45;;
84444;SDS011;74683;48.402;10.596;2024-01-27T01:40:06;3.28;;;1.40;;
84444;SDS011;74683;48.402;10.596;2024-01-27T01:42:33;2.70;;;1.42;;
84444;SDS011;74683;48.402;10.596;2024-01-27T01:45:00;5.35;;;1.05;;
84444;SDS011;74683;48.402;10.596;2024-01-27T01:47:27;2.95;;;1.50;;
84444;SDS011;74683;48.402;10.596;2024-01-27T01:49:54;4.70;;;1.67;;
84444;SDS011;74683;48.402;10.596;2024-01-27T01:52:22;3.42;;;1.20;;
84444;SDS011;74683;48.402;10.596;2024-01-27T01:54:49;8.27;;;2.10;;
84444;SDS011;74683;48.402;10.596;2024-01-27T01:57:16;3.75;;;1.90;;
84444;SDS011;74683;48.402;10.596;2024-01-27T01:59:44;4.65;;;2.30;;
84444;SDS011;74683;48.402;10.596;2024-01-27T02:02:11;3.17;;;1.48;;
84444;SDS011;74683;48.402;10.596;2024-01-27T02:04:42;6.75;;;1.90;;
84444;SDS011;74683;48.402;10.596;2024-01-27T02:07:09;6.43;;;2.10;;
84444;SDS011;74683;48.402;10.596;2024-01-27T02:09:36;5.18;;;1.95;;
84444;SDS011;74683;48.402;10.596;2024-01-27T02:12:03;6.03;;;1.77;;
84444;SDS011;74683;48.402;10.596;2024-01-27T02:14:31;5.15;;;1.50;;
84444;SDS011;74683;48.402;10.596;2024-01-27T02:16:57;1.95;;;1.50;;
84444;SDS011;74683;48.402;10.596;2024-01-27T02:19:24;5.43;;;1.50;;
84444;SDS011;74683;48.402;10.596;2024-01-27T02:21:51;3.30;;;1.73;;
84444;SDS011;74683;48.402;10.596;2024-01-27T02:24:18;3.28;;;1.60;;
84444;SDS011;74683;48.402;10.596;2024-01-27T02:26:44;4.85;;;1.75;;
84444;SDS011;74683;48.402;10.596;2024-01-27T02:29:11;2.90;;;1.50;;
84444;SDS011;74683;48.402;10.596;2024-01-27T02:31:38;11.77;;;2.42;;
84444;SDS011;74683;48.402;10.596;2024-01-27T02:34:05;5.10;;;2.30;;
84444;SDS011;74683;48.402;10.596;2024-01-27T02:36:31;5.90;;;2.17;;
84444;SDS011;74683;48.402;10.596;2024-01-27T02:38:58;3.97;;;1.92;;
84444;SDS011;74683;48.402;10.596;2024-01-27T02:41:25;4.25;;;2.15;;
84444;SDS011;74683;48.402;10.596;2024-01-27T02:43:51;4.30;;;1.90;;
84444;SDS011;74683;48.402;10.596;2024-01-27T02:46:18;7.03;;;2.00;;
84444;SDS011;74683;48.402;10.596;2024-01-27T02:48:45;5.53;;;2.53;;
84444;SDS011;74683;48.402;10.596;2024-01-27T02:51:12;9.18;;;2.17;;
84444;SDS011;74683;48.402;10.596;2024-01-27T02:53:39;5.95;;;2.53;;
84444;SDS011;74683;48.402;10.596;2024-01-27T02:56:06;3.10;;;1.63;;
84444;SDS011;74683;48.402;10.596;2024-01-27T02:58:35;3.70;;;1.65;;
84444;SDS011;74683;48.402;10.596;2024-01-27T03:01:01;4.68;;;1.60;;
84444;SDS011;74683;48.402;10.596;2024-01-27T03:03:28;2.65;;;1.30;;
84444;SDS011;74683;48.402;10.596;2024-01-27T03:05:55;9.15;;;1.58;;
84444;SDS011;74683;48.402;10.596;2024-01-27T03:08:22;5.20;;;1.50;;
84444;SDS011;74683;48.402;10.596;2024-01-27T03:10:49;5.30;;;1.58;;
84444;SDS011;74683;48.402;10.596;2024-01-27T03:13:15;1.38;;;1.08;;
84444;SDS011;74683;48.402;10.596;2024-01-27T03:15:42;3.80;;;1.77;;
84444;SDS011;74683;48.402;10.596;2024-01-27T03:18:09;3.92;;;2.25;;
84444;SDS011;74683;48.402;10.596;2024-01-27T03:20:36;3.58;;;2.55;;
84444;SDS011;74683;48.402;10.596;2024-01-27T03:23:03;3.08;;;2.10;;
84444;SDS011;74683;48.402;10.596;2024-01-27T03:25:30;4.68;;;2.00;;
84444;SDS011;74683;48.402;10.596;2024-01-27T03:27:56;4.30;;;1.88;;
84444;SDS011;74683;48.402;10.596;2024-01-27T03:30:23;7.32;;;2.10;;
84444;SDS011;74683;48.402;10.596;2024-01-27T03:32:50;4.55;;;2.17;;
84444;SDS011;74683;48.402;10.596;2024-01-27T03:35:17;3.97;;;1.38;;
84444;SDS011;74683;48.402;10.596;2024-01-27T03:37:43;2.17;;;1.38;;
84444;SDS011;74683;48.402;10.596;2024-01-27T03:40:11;4.35;;;1.50;;
84444;SDS011;74683;48.402;10.596;2024-01-27T03:42:38;9.00;;;1.98;;
84444;SDS011;74683;48.402;10.596;2024-01-27T03:45:05;3.10;;;1.75;;
84444;SDS011;74683;48.402;10.596;2024-01-27T03:47:32;4.72;;;1.80;;
84444;SDS011;74683;48.402;10.596;2024-01-27T03:49:59;5.00;;;1.65;;
84444;SDS011;74683;48.402;10.596;2024-01-27T03:52:25;4.50;;;1.85;;
84444;SDS011;74683;48.402;10.596;2024-01-27T03:54:52;4.82;;;1.60;;
84444;SDS011;74683;48.402;10.596;2024-01-27T03:57:18;3.28;;;1.55;;
84444;SDS011;74683;48.402;10.596;2024-01-27T03:59:45;4.30;;;1.70;;
84444;SDS011;74683;48.402;10.596;2024-01-27T04:02:12;4.80;;;1.63;;
84444;SDS011;74683;48.402;10.596;2024-01-27T04:04:38;4.82;;;1.35;;
84444;SDS011;74683;48.402;10.596;2024-01-27T04:07:05;5.70;;;1.95;;
84444;SDS011;74683;48.402;10.596;2024-01-27T04:09:32;2.90;;;2.03;;
84444;SDS011;74683;48.402;10.596;2024-01-27T04:11:59;5.68;;;1.67;;
84444;SDS011;74683;48.402;10.596;2024-01-27T04:14:26;5.28;;;1.90;;
84444;SDS011;74683;48.402;10.596;2024-01-27T04:16:53;3.72;;;2.10;;
84444;SDS011;74683;48.402;10.596;2024-01-27T04:19:20;4.28;;;1.73;;
84444;SDS011;74683;48.402;10.596;2024-01-27T04:21:46;2.08;;;1.38;;
84444;SDS011;74683;48.402;10.596;2024-01-27T04:24:13;4.32;;;1.70;;
84444;SDS011;74683;48.402;10.596;2024-01-27T04:26:40;4.32;;;2.08;;
84444;SDS011;74683;48.402;10.596;2024-01-27T04:29:06;3.70;;;1.88;;
84444;SDS011;74683;48.402;10.596;2024-01-27T04:31:33;4.78;;;2.05;;
84444;SDS011;74683;48.402;10.596;2024-01-27T04:34:00;6.78;;;2.67;;
84444;SDS011;74683;48.402;10.596;2024-01-27T04:36:27;3.40;;;2.17;;
84444;SDS011;74683;48.402;10.596;2024-01-27T04:38:57;2.83;;;1.90;;
84444;SDS011;74683;48.402;10.596;2024-01-27T04:41:24;2.03;;;1.70;;
84444;SDS011;74683;48.402;10.596;2024-01-27T04:43:50;4.70;;;2.65;;
84444;SDS011;74683;48.402;10.596;2024-01-27T04:46:19;7.30;;;2.60;;
84444;SDS011;74683;48.402;10.596;2024-01-27T04:48:46;5.47;;;2.15;;
84444;SDS011;74683;48.402;10.596;2024-01-27T04:51:13;7.00;;;1.98;;
84444;SDS011;74683;48.402;10.596;2024-01-27T04:53:40;2.33;;;1.45;;
84444;SDS011;74683;48.402;10.596;2024-01-27T04:56:07;4.30;;;1.70;;
84444;SDS011;74683;48.402;10.596;2024-01-27T04:58:35;4.70;;;1.80;;
84444;SDS011;74683;48.402;10.596;2024-01-27T05:01:02;6.57;;;1.60;;
84444;SDS011;74683;48.402;10.596;2024-01-27T05:03:29;5.30;;;1.20;;
84444;SDS011;74683;48.402;10.596;2024-01-27T05:05:55;3.05;;;1.83;;
84444;SDS011;74683;48.402;10.596;2024-01-27T05:08:22;5.18;;;1.50;;
84444;SDS011;74683;48.402;10.596;2024-01-27T05:10:49;3.22;;;1.33;;
84444;SDS011;74683;48.402;10.596;2024-01-27T05:13:15;4.93;;;1.30;;
84444;SDS011;74683;48.402;10.596;2024-01-27T05:15:42;4.60;;;1.67;;
84444;SDS011;74683;48.402;10.596;2024-01-27T05:18:09;8.88;;;1.95;;
84444;SDS011;74683;48.402;10.596;2024-01-27T05:20:36;5.18;;;1.88;;
84444;SDS011;74683;48.402;10.596;2024-01-27T05:23:03;3.75;;;2.03;;
84444;SDS011;74683;48.402;10.596;2024-01-27T05:25:30;3.55;;;1.65;;
84444;SDS011;74683;48.402;10.596;2024-01-27T05:27:57;4.68;;;1.83;;
84444;SDS011;74683;48.402;10.596;2024-01-27T05:30:23;5.95;;;1.88;;
84444;SDS011;74683;48.402;10.596;2024-01-27T05:32:50;7.00;;;2.20;;
84444;SDS011;74683;48.402;10.596;2024-01-27T05:35:17;5.50;;;2.08;;
84444;SDS011;74683;48.402;10.596;2024-01-27T05:37:43;4.20;;;1.65;;
84444;SDS011;74683;48.402;10.596;2024-01-27T05:40:10;4.30;;;2.60;;
84444;SDS011;74683;48.402;10.596;2024-01-27T05:42:37;6.15;;;2.70;;
84444;SDS011;74683;48.402;10.596;2024-01-27T05:45:04;7.60;;;2.83;;
84444;SDS011;74683;48.402;10.596;2024-01-27T05:47:31;12.50;;;5.53;;
84444;SDS011;74683;48.402;10.596;2024-01-27T05:49:58;7.60;;;3.00;;
84444;SDS011;74683;48.402;10.596;2024-01-27T05:52:25;10.65;;;3.03;;
84444;SDS011;74683;48.402;10.596;2024-01-27T05:55:01;5.63;;;1.98;;
84444;SDS011;74683;48.402;10.596;2024-01-27T05:57:30;4.40;;;2.13;;
84444;SDS011;74683;48.402;10.596;2024-01-27T05:59:56;5.93;;;2.72;;
84444;SDS011;74683;48.402;10.596;2024-01-27T06:02:23;5.93;;;3.15;;
84444;SDS011;74683;48.402;10.596;2024-01-27T06:04:50;6.22;;;4.35;;
84444;SDS011;74683;48.402;10.596;2024-01-27T06:07:17;6.18;;;2.67;;
84444;SDS011;74683;48.402;10.596;2024-01-27T06:09:43;5.43;;;2.38;;
84444;SDS011;74683;48.402;10.596;2024-01-27T06:12:10;6.32;;;2.60;;
84444;SDS011;74683;48.402;10.596;2024-01-27T06:14:37;118.50;;;29.20;;
84444;SDS011;74683;48.402;10.596;2024-01-27T06:17:04;43.20;;;12.38;;
84444;SDS011;74683;48.402;10.596;2024-01-27T06:19:31;20.30;;;6.85;;
84444;SDS011;74683;48.402;10.596;2024-01-27T06:21:58;52.78;;;14.05;;
84444;SDS011;74683;48.402;10.596;2024-01-27T06:24:26;58.95;;;16.65;;
84444;SDS011;74683;48.402;10.596;2024-01-27T06:26:53;31.85;;;10.07;;
84444;SDS011;74683;48.402;10.596;2024-01-27T06:29:20;21.20;;;7.43;;
84444;SDS011;74683;48.402;10.596;2024-01-27T06:31:47;8.13;;;3.42;;
84444;SDS011;74683;48.402;10.596;2024-01-27T06:34:13;5.05;;;2.72;;
84444;SDS011;74683;48.402;10.596;2024-01-27T06:36:40;3.97;;;2.47;;
84444;SDS011;74683;48.402;10.596;2024-01-27T06:39:07;6.07;;;2.63;;
84444;SDS011;74683;48.402;10.596;2024-01-27T06:41:34;10.25;;;2.85;;
84444;SDS011;74683;48.402;10.596;2024-01-27T06:44:01;4.63;;;2.65;;
84444;SDS011;74683;48.402;10.596;2024-01-27T06:46:27;4.68;;;2.80;;
84444;SDS011;74683;48.402;10.596;2024-01-27T06:48:54;6.53;;;2.40;;
84444;SDS011;74683;48.402;10.596;2024-01-27T06:51:21;3.85;;;2.25;;
84444;SDS011;74683;48.402;10.596;2024-01-27T06:53:48;5.60;;;2.40;;
84444;SDS011;74683;48.402;10.596;2024-01-27T06:56:15;4.95;;;2.20;;
84444;SDS011;74683;48.402;10.596;2024-01-27T06:58:41;5.03;;;2.05;;
84444;SDS011;74683;48.402;10.596;2024-01-27T07:01:08;5.80;;;2.70;;
84444;SDS011;74683;48.402;10.596;2024-01-27T07:03:35;13.20;;;5.85;;
84444;SDS011;74683;48.402;10.596;2024-01-27T07:06:02;7.47;;;3.63;;
84444;SDS011;74683;48.402;10.596;2024-01-27T07:08:29;8.48;;;3.58;;
84444;SDS011;74683;48.402;10.596;2024-01-27T07:10:55;5.55;;;2.92;;
84444;SDS011;74683;48.402;10.596;2024-01-27T07:13:22;13.15;;;5.43;;
84444;SDS011;74683;48.402;10.596;2024-01-27T07:15:48;11.48;;;5.68;;
84444;SDS011;74683;48.402;10.596;2024-01-27T07:18:15;19.67;;;9.45;;
84444;SDS011;74683;48.402;10.596;2024-01-27T07:20:44;20.13;;;7.78;;
84444;SDS011;74683;48.402;10.596;2024-01-27T07:23:10;21.05;;;6.70;;
84444;SDS011;74683;48.402;10.596;2024-01-27T07:25:37;14.73;;;4.93;;
84444;SDS011;74683;48.402;10.596;2024-01-27T07:28:04;12.07;;;6.20;;
84444;SDS011;74683;48.402;10.596;2024-01-27T07:30:31;11.75;;;5.05;;
84444;SDS011;74683;48.402;10.596;2024-01-27T07:32:57;10.00;;;5.40;;
84444;SDS011;74683;48.402;10.596;2024-01-27T07:35:24;16.20;;;5.32;;
84444;SDS011;74683;48.402;10.596;2024-01-27T07:37:50;19.42;;;9.13;;
84444;SDS011;74683;48.402;10.596;2024-01-27T07:40:17;26.65;;;9.93;;
84444;SDS011;74683;48.402;10.596;2024-01-27T07:42:44;34.38;;;14.20;;
84444;SDS011;74683;48.402;10.596;2024-01-27T07:45:11;37.63;;;13.52;;
84444;SDS011;74683;48.402;10.596;2024-01-27T07:47:37;38.35;;;15.85;;
84444;SDS011;74683;48.402;10.596;2024-01-27T07:50:04;28.35;;;11.07;;
84444;SDS011;74683;48.402;10.596;2024-01-27T07:52:31;18.83;;;7.90;;
84444;SDS011;74683;48.402;10.596;2024-01-27T07:54:58;16.42;;;7.63;;
84444;SDS011;74683;48.402;10.596;2024-01-27T07:57:24;14.32;;;6.35;;
84444;SDS011;74683;48.402;10.596;2024-01-27T07:59:51;12.18;;;5.10;;
84444;SDS011;74683;48.402;10.596;2024-01-27T08:02:17;10.50;;;4.18;;
84444;SDS011;74683;48.402;10.596;2024-01-27T08:04:44;20.70;;;6.78;;
84444;SDS011;74683;48.402;10.596;2024-01-27T08:07:10;24.67;;;8.13;;
84444;SDS011;74683;48.402;10.596;2024-01-27T08:09:37;34.70;;;10.00;;
84444;SDS011;74683;48.402;10.596;2024-01-27T08:12:06;15.07;;;7.00;;
84444;SDS011;74683;48.402;10.596;2024-01-27T08:14:33;16.55;;;7.30;;
84444;SDS011;74683;48.402;10.596;2024-01-27T08:17:01;17.33;;;6.57;;
84444;SDS011;74683;48.402;10.596;2024-01-27T08:19:29;18.10;;;8.02;;
84444;SDS011;74683;48.402;10.596;2024-01-27T08:21:56;13.82;;;6.65;;
84444;SDS011;74683;48.402;10.596;2024-01-27T08:24:23;16.02;;;7.50;;
84444;SDS011;74683;48.402;10.596;2024-01-27T08:26:50;14.57;;;6.93;;
84444;SDS011;74683;48.402;10.596;2024-01-27T08:29:17;28.45;;;11.63;;
84444;SDS011;74683;48.402;10.596;2024-01-27T08:31:43;28.27;;;11.18;;
84444;SDS011;74683;48.402;10.596;2024-01-27T08:34:10;13.30;;;6.97;;
84444;SDS011;74683;48.402;10.596;2024-01-27T08:36:39;19.63;;;6.18;;
84444;SDS011;74683;48.402;10.596;2024-01-27T08:39:06;18.92;;;5.53;;
84444;SDS011;74683;48.402;10.596;2024-01-27T08:41:35;11.25;;;4.95;;
84444;SDS011;74683;48.402;10.596;2024-01-27T08:44:02;13.57;;;5.68;;
84444;SDS011;74683;48.402;10.596;2024-01-27T08:46:29;17.67;;;6.80;;
84444;SDS011;74683;48.402;10.596;2024-01-27T08:48:55;22.00;;;9.00;;
84444;SDS011;74683;48.402;10.596;2024-01-27T08:51:22;21.05;;;8.90;;
84444;SDS011;74683;48.402;10.596;2024-01-27T08:53:49;27.38;;;9.30;;
84444;SDS011;74683;48.402;10.596;2024-01-27T08:56:16;16.33;;;8.93;;
84444;SDS011;74683;48.402;10.596;2024-01-27T08:58:44;14.80;;;7.80;;
84444;SDS011;74683;48.402;10.596;2024-01-27T09:01:11;16.95;;;8.23;;
84444;SDS011;74683;48.402;10.596;2024-01-27T09:03:41;12.10;;;6.25;;
84444;SDS011;74683;48.402;10.596;2024-01-27T09:06:08;13.30;;;5.60;;
84444;SDS011;74683;48.402;10.596;2024-01-27T09:08:35;9.25;;;5.15;;
84444;SDS011;74683;48.402;10.596;2024-01-27T09:11:01;11.35;;;5.15;;
84444;SDS011;74683;48.402;10.596;2024-01-27T09:13:29;11.95;;;5.00;;
84444;SDS011;74683;48.402;10.596;2024-01-27T09:15:58;13.52;;;5.03;;
84444;SDS011;74683;48.402;10.596;2024-01-27T09:18:25;9.52;;;5.28;;
84444;SDS011;74683;48.402;10.596;2024-01-27T09:20:54;12.43;;;6.32;;
84444;SDS011;74683;48.402;10.596;2024-01-27T09:23:20;14.70;;;6.70;;
84444;SDS011;74683;48.402;10.596;2024-01-27T09:25:47;10.57;;;6.55;;
84444;SDS011;74683;48.402;10.596;2024-01-27T09:28:13;11.95;;;6.57;;
84444;SDS011;74683;48.402;10.596;2024-01-27T09:30:42;13.02;;;6.70;;
84444;SDS011;74683;48.402;10.596;2024-01-27T09:33:08;13.80;;;7.75;;
84444;SDS011;74683;48.402;10.596;2024-01-27T09:35:35;19.40;;;7.45;;
84444;SDS011;74683;48.402;10.596;2024-01-27T09:38:02;12.40;;;6.30;;
84444;SDS011;74683;48.402;10.596;2024-01-27T09:40:29;10.60;;;5.28;;
84444;SDS011;74683;48.402;10.596;2024-01-27T09:42:59;14.30;;;7.90;;
84444;SDS011;74683;48.402;10.596;2024-01-27T09:45:27;10.43;;;5.70;;
84444;SDS011;74683;48.402;10.596;2024-01-27T09:47:55;13.43;;;7.13;;
84444;SDS011;74683;48.402;10.596;2024-01-27T09:50:24;22.08;;;10.85;;
84444;SDS011;74683;48.402;10.596;2024-01-27T09:52:52;22.25;;;12.90;;
84444;SDS011;74683;48.402;10.596;2024-01-27T09:55:19;16.40;;;9.15;;
84444;SDS011;74683;48.402;10.596;2024-01-27T09:57:46;13.60;;;5.63;;
84444;SDS011;74683;48.402;10.596;2024-01-27T10:00:13;12.95;;;6.57;;
84444;SDS011;74683;48.402;10.596;2024-01-27T10:02:43;15.70;;;6.80;;
84444;SDS011;74683;48.402;10.596;2024-01-27T10:05:13;9.25;;;5.57;;
84444;SDS011;74683;48.402;10.596;2024-01-27T10:07:39;12.32;;;5.72;;
84444;SDS011;74683;48.402;10.596;2024-01-27T10:10:06;11.75;;;4.80;;
84444;SDS011;74683;48.402;10.596;2024-01-27T10:12:34;9.25;;;4.68;;
84444;SDS011;74683;48.402;10.596;2024-01-27T10:15:20;10.50;;;3.50;;
84444;SDS011;74683;48.402;10.596;2024-01-27T10:17:47;8.38;;;3.08;;
84444;SDS011;74683;48.402;10.596;2024-01-27T10:20:15;8.32;;;3.05;;
84444;SDS011;74683;48.402;10.596;2024-01-27T10:22:42;7.80;;;2.33;;
84444;SDS011;74683;48.402;10.596;2024-01-27T10:25:11;7.22;;;2.15;;
84444;SDS011;74683;48.402;10.596;2024-01-27T10:27:38;7.28;;;2.15;;
84444;SDS011;74683;48.402;10.596;2024-01-27T10:30:05;8.63;;;3.20;;
84444;SDS011;74683;48.402;10.596;2024-01-27T10:32:34;5.10;;;1.60;;
84444;SDS011;74683;48.402;10.596;2024-01-27T10:35:07;10.10;;;1.90;;
84444;SDS011;74683;48.402;10.596;2024-01-27T10:37:38;7.07;;;1.30;;
84444;SDS011;74683;48.402;10.596;2024-01-27T10:40:05;8.05;;;4.85;;
84444;SDS011;74683;48.402;10.596;2024-01-27T10:42:34;7.20;;;2.08;;
84444;SDS011;74683;48.402;10.596;2024-01-27T10:45:02;5.32;;;1.85;;
84444;SDS011;74683;48.402;10.596;2024-01-27T10:47:31;10.60;;;1.85;;
84444;SDS011;74683;48.402;10.596;2024-01-27T10:49:59;7.07;;;2.03;;
84444;SDS011;74683;48.402;10.596;2024-01-27T10:52:34;10.13;;;1.63;;
84444;SDS011;74683;48.402;10.596;2024-01-27T10:55:04;5.85;;;3.47;;
84444;SDS011;74683;48.402;10.596;2024-01-27T10:57:35;7.25;;;1.77;;
84444;SDS011;74683;48.402;10.596;2024-01-27T11:00:03;4.50;;;1.80;;
84444;SDS011;74683;48.402;10.596;2024-01-27T11:02:35;5.30;;;1.98;;
84444;SDS011;74683;48.402;10.596;2024-01-27T11:05:06;8.02;;;2.00;;
84444;SDS011;74683;48.402;10.596;2024-01-27T11:07:34;8.65;;;1.80;;
84444;SDS011;74683;48.402;10.596;2024-01-27T11:10:01;6.13;;;2.10;;
84444;SDS011;74683;48.402;10.596;2024-01-27T11:12:28;4.20;;;1.95;;
84444;SDS011;74683;48.402;10.596;2024-01-27T11:14:56;5.63;;;1.55;;
84444;SDS011;74683;48.402;10.596;2024-01-27T11:17:25;6.45;;;1.95;;
84444;SDS011;74683;48.402;10.596;2024-01-27T11:19:52;9.77;;;2.20;;
84444;SDS011;74683;48.402;10.596;2024-01-27T11:22:23;9.05;;;1.60;;
84444;SDS011;74683;48.402;10.596;2024-01-27T11:27:39;7.07;;;2.28;;
84444;SDS011;74683;48.402;10.596;2024-01-27T11:30:08;7.53;;;1.90;;
84444;SDS011;74683;48.402;10.596;2024-01-27T11:32:52;4.30;;;1.70;;
84444;SDS011;74683;48.402;10.596;2024-01-27T11:35:19;6.78;;;1.30;;
84444;SDS011;74683;48.402;10.596;2024-01-27T11:37:45;10.57;;;1.73;;
84444;SDS011;74683;48.402;10.596;2024-01-27T11:40:14;5.75;;;1.77;;
84444;SDS011;74683;48.402;10.596;2024-01-27T11:42:42;8.60;;;1.70;;
84444;SDS011;74683;48.402;10.596;2024-01-27T11:45:09;5.60;;;1.90;;
84444;SDS011;74683;48.402;10.596;2024-01-27T11:47:36;6.28;;;1.60;;
84444;SDS011;74683;48.402;10.596;2024-01-27T11:50:03;6.22;;;1.60;;
84444;SDS011;74683;48.402;10.596;2024-01-27T11:52:30;4.93;;;1.27;;
84444;SDS011;74683;48.402;10.596;2024-01-27T11:54:59;5.97;;;1.63;;
84444;SDS011;74683;48.402;10.596;2024-01-27T11:57:26;4.22;;;1.60;;
84444;SDS011;74683;48.402;10.596;2024-01-27T11:59:53;6.60;;;1.60;;
84444;SDS011;74683;48.402;10.596;2024-01-27T12:02:21;7.78;;;2.40;;
84444;SDS011;74683;48.402;10.596;2024-01-27T12:04:48;7.93;;;1.67;;
84444;SDS011;74683;48.402;10.596;2024-01-27T12:07:16;6.30;;;1.58;;
84444;SDS011;74683;48.402;10.596;2024-01-27T12:09:49;13.57;;;2.35;;
84444;SDS011;74683;48.402;10.596;2024-01-27T12:12:17;4.57;;;1.48;;
84444;SDS011;74683;48.402;10.596;2024-01-27T12:14:48;3.70;;;1.45;;
84444;SDS011;74683;48.402;10.596;2024-01-27T12:17:17;4.03;;;2.22;;
84444;SDS011;74683;48.402;10.596;2024-01-27T12:19:51;6.18;;;1.52;;
84444;SDS011;74683;48.402;10.596;2024-01-27T12:22:21;8.93;;;1.10;;
84444;SDS011;74683;48.402;10.596;2024-01-27T12:24:49;6.10;;;1.45;;
84444;SDS011;74683;48.402;10.596;2024-01-27T12:27:16;9.00;;;1.35;;
84444;SDS011;74683;48.402;10.596;2024-01-27T12:29:43;3.47;;;0.80;;
84444;SDS011;74683;48.402;10.596;2024-01-27T12:32:10;3.22;;;1.08;;
84444;SDS011;74683;48.402;10.596;2024-01-27T12:34:40;9.55;;;1.33;;
84444;SDS011;74683;48.402;10.596;2024-01-27T12:37:08;7.53;;;2.28;;
84444;SDS011;74683;48.402;10.596;2024-01-27T12:39:37;3.38;;;1.10;;
84444;SDS011;74683;48.402;10.596;2024-01-27T12:42:04;5.50;;;1.13;;
84444;SDS011;74683;48.402;10.596;2024-01-27T12:44:32;7.40;;;1.15;;
84444;SDS011;74683;48.402;10.596;2024-01-27T12:46:58;8.02;;;1.88;;
84444;SDS011;74683;48.402;10.596;2024-01-27T12:49:25;4.18;;;1.30;;
84444;SDS011;74683;48.402;10.596;2024-01-27T12:51:51;2.28;;;1.00;;
84444;SDS011;74683;48.402;10.596;2024-01-27T12:54:18;5.22;;;1.20;;
84444;SDS011;74683;48.402;10.596;2024-01-27T12:56:46;5.90;;;0.88;;
84444;SDS011;74683;48.402;10.596;2024-01-27T12:59:12;2.42;;;0.90;;
84444;SDS011;74683;48.402;10.596;2024-01-27T13:01:40;5.05;;;1.20;;
84444;SDS011;74683;48.402;10.596;2024-01-27T13:04:07;2.67;;;0.63;;
84444;SDS011;74683;48.402;10.596;2024-01-27T13:06:34;4.65;;;1.08;;
84444;SDS011;74683;48.402;10.596;2024-01-27T13:09:01;3.60;;;0.70;;
84444;SDS011;74683;48.402;10.596;2024-01-27T13:11:27;5.60;;;0.60;;
84444;SDS011;74683;48.402;10.596;2024-01-27T13:13:54;5.15;;;0.85;;
84444;SDS011;74683;48.402;10.596;2024-01-27T13:16:21;2.10;;;0.85;;
84444;SDS011;74683;48.402;10.596;2024-01-27T13:18:47;5.30;;;1.77;;
84444;SDS011;74683;48.402;10.596;2024-01-27T13:21:14;9.43;;;5.07;;
84444;SDS011;74683;48.402;10.596;2024-01-27T13:23:41;2.65;;;1.65;;
84444;SDS011;74683;48.402;10.596;2024-01-27T13:26:08;6.82;;;1.92;;
84444;SDS011;74683;48.402;10.596;2024-01-27T13:28:45;10.85;;;2.92;;
84444;SDS011;74683;48.402;10.596;2024-01-27T13:31:12;9.63;;;2.55;;
84444;SDS011;74683;48.402;10.596;2024-01-27T13:33:39;6.75;;;2.78;;
84444;SDS011;74683;48.402;10.596;2024-01-27T13:36:06;8.50;;;2.55;;
84444;SDS011;74683;48.402;10.596;2024-01-27T13:38:34;3.65;;;2.00;;
84444;SDS011;74683;48.402;10.596;2024-01-27T13:41:01;8.88;;;1.85;;
84444;SDS011;74683;48.402;10.596;2024-01-27T13:43:28;13.23;;;2.22;;
84444;SDS011;74683;48.402;10.596;2024-01-27T13:45:55;5.97;;;3.08;;
84444;SDS011;74683;48.402;10.596;2024-01-27T13:48:22;8.90;;;3.15;;
84444;SDS011;74683;48.402;10.596;2024-01-27T13:50:48;5.25;;;1.85;;
84444;SDS011;74683;48.402;10.596;2024-01-27T13:53:16;4.43;;;2.45;;
84444;SDS011;74683;48.402;10.596;2024-01-27T13:55:42;11.30;;;2.55;;
84444;SDS011;74683;48.402;10.596;2024-01-27T13:58:10;6.53;;;2.50;;
84444;SDS011;74683;48.402;10.596;2024-01-27T14:00:37;8.23;;;2.40;;
84444;SDS011;74683;48.402;10.596;2024-01-27T14:03:04;11.25;;;2.40;;
84444;SDS011;74683;48.402;10.596;2024-01-27T14:05:31;5.05;;;1.83;;
84444;SDS011;74683;48.402;10.596;2024-01-27T14:07:57;10.82;;;4.53;;
84444;SDS011;74683;48.402;10.596;2024-01-27T14:10:24;9.88;;;3.83;;
84444;SDS011;74683;48.402;10.596;2024-01-27T14:12:51;6.60;;;2.78;;
84444;SDS011;74683;48.402;10.596;2024-01-27T14:15:18;7.05;;;1.60;;
84444;SDS011;74683;48.402;10.596;2024-01-27T14:17:44;2.72;;;1.30;;
84444;SDS011;74683;48.402;10.596;2024-01-27T14:20:12;6.10;;;2.13;;
84444;SDS011;74683;48.402;10.596;2024-01-27T14:22:40;4.88;;;2.05;;
84444;SDS011;74683;48.402;10.596;2024-01-27T14:25:07;6.90;;;1.73;;
84444;SDS011;74683;48.402;10.596;2024-01-27T14:27:34;4.72;;;1.48;;
84444;SDS011;74683;48.402;10.596;2024-01-27T14:30:02;5.75;;;2.05;;
84444;SDS011;74683;48.402;10.596;2024-01-27T14:32:29;5.18;;;1.70;;
84444;SDS011;74683;48.402;10.596;2024-01-27T14:34:55;2.97;;;1.58;;